Latest Coastal Weather Observations for Coolangatta

IDQ60701

Issued at 2:42 am EST Friday 5 March 2021 (issued every 10 minutes, with the page automatically refreshed every 10 minutes)

About coastal observations | Map of coastal stations | Coastal observations for QLD | Marine services | Other Formats
Station Details ID: 040717 Name: COOLANGATTA Lat: -28.17 Lon: 153.51 Height: 4.0 m
Data from the previous 72 hours. | See also: Recent months at Coolangatta

Observations at Coolangatta are collected in the Queensland time zone, which does not include daylight savings during the summer period. Therefore 'Rain since 9am' totals and other values are based on the Queensland time zone.

Date/Time
EST
Wind Sea
Height
m
Swell Vis
km
Cloud Weather Temp
°C
Press
MSL
hPa
Rain since
9am
mm
Dir  Spd
kts
Gust
kts
Height
m
Period
s
Dir
05/02:30am SW 1 3 - - - - 10 Clear - 17.3 1008.6 0.6
05/02:00am SW 1 4 - - - - 10 - - 17.2 1008.9 0.6
05/01:30am SW 1 5 - - - - 10 Partly cloudy - 17.5 1009.2 0.6
05/01:00am SSW 4 6 - - - - 10 - - 17.6 1009.6 0.6
05/12:30am SW 4 6 - - - - 10 - - 17.5 1010.0 0.6
05/12:00am SSW 3 5 - - - - 10 - - 17.6 1010.2 0.6
 
Date/Time
EST
Wind Sea
Height
m
Swell Vis
km
Cloud Weather Temp
°C
Press
MSL
hPa
Rain since
9am
mm
Dir  Spd
kts
Gust
kts
Height
m
Period
s
Dir
04/11:30pm SSW 4 5 - - - - 10 - - 17.8 1010.4 0.6
04/11:00pm SSW 3 5 - - - - 10 - - 18.0 1010.6 0.6
04/10:30pm SW 4 5 - - - - 10 - - 18.1 1010.8 0.6
04/10:00pm WSW 3 5 - - - - 10 - - 18.5 1010.9 0.6
04/09:30pm SW 5 7 - - - - 10 - - 18.7 1011.0 0.6
04/09:00pm SW 4 6 - - - - 10 - - 19.0 1011.0 0.6
04/08:30pm WSW 4 6 - - - - 10 - - 19.4 1010.9 0.6
04/08:00pm WSW 5 6 - - - - 10 - - 19.9 1010.7 0.6
04/07:30pm SSW 5 7 - - - - 10 Partly cloudy - 20.5 1010.7 0.6
04/07:00pm S 3 4 - - - - 10 Cloudy - 21.6 1010.5 0.6
04/06:30pm SSE 3 4 - - - - 10 Partly cloudy - 21.9 1010.4 0.6
04/06:00pm SSE 5 7 - - - - 10 Partly cloudy - 22.6 1010.2 0.6
04/05:30pm SSE 7 9 - - - - 10 Partly cloudy - 23.1 1010.2 0.6
04/05:00pm ESE 10 12 - - - - 10 Partly cloudy - 24.5 1010.1 0.6
04/04:30pm SE 10 12 - - - - 10 - - 24.7 1010.2 0.6
04/04:00pm SSE 9 13 - - - - 10 - - 25.1 1010.3 0.6
04/03:30pm SSE 10 14 - - - - 10 Partly cloudy - 24.6 1010.5 0.6
04/03:00pm SSE 9 12 - - - - 10 Cloudy - 25.0 1010.7 0.6
04/02:30pm ESE 11 14 - - - - 10 Partly cloudy - 24.2 1011.1 0.6
04/02:00pm SE 11 15 - - - - 10 Partly cloudy - 24.7 1011.4 0.6
04/01:30pm SE 10 16 - - - - 10 Partly cloudy - 25.1 1011.7 0.6
04/01:00pm SE 12 16 - - - - 10 Partly cloudy - 25.2 1012.0 0.6
04/12:30pm SSE 11 16 - - - - 10 Partly cloudy - 24.4 1012.2 0.6
04/12:00pm SSE 7 10 - - - - 10 Cloudy Recent precip. 23.9 1012.5 0.6
04/11:30am SSW 9 14 - - - - 10 Partly cloudy - 23.0 1012.9 0.6
04/11:00am S 7 10 - - - - 10 Partly cloudy - 22.4 1013.4 0.4
04/10:30am S 5 8 - - - - 10 Partly cloudy - 21.5 1013.7 0.4
04/10:00am S 6 9 - - - - 10 Partly cloudy - 20.3 1014.0 0.4
04/09:58am S 7 9 - - - - 10 Partly cloudy - 20.4 1014.0 0.4
04/09:51am S 7 10 - - - - 10 Partly cloudy - 20.1 1014.0 0.4
04/09:31am S 8 10 - - - - 6 Partly cloudy - 19.4 1014.1 0.4
04/09:30am S 8 10 - - - - 8 Partly cloudy - 19.4 1014.1 0.4
04/09:19am SSE 9 11 - - - - 10 Partly cloudy - 20.0 1014.1 0.0
04/09:17am S 9 11 - - - - 10 Partly cloudy - 20.3 1014.1 0.0
04/09:00am S 10 16 - - - - 10 Cloudy Showers 19.8 1014.0 29.8
04/08:57am S 10 16 - - - - 10 Partly cloudy - 19.5 1014.0 29.8
04/08:40am S 8 11 - - - - 6 Partly cloudy - 19.4 1013.9 29.8
04/08:30am S 10 15 - - - - 7 Partly cloudy - 19.3 1013.7 29.6
04/08:21am S 11 15 - - - - 6 Partly cloudy - 19.4 1013.6 29.6
04/08:00am S 9 13 - - - - 10 Partly cloudy - 19.6 1013.2 29.6
04/07:30am SSW 8 11 - - - - 10 Partly cloudy - 19.2 1013.1 29.6
04/07:00am SW 8 12 - - - - 10 Partly cloudy - 19.4 1012.6 29.4
04/06:38am SW 6 8 - - - - 10 Partly cloudy - 19.1 1012.6 29.4
04/06:30am SSW 7 10 - - - - 8 Partly cloudy - 19.0 1012.6 29.4
04/06:04am SSW 7 10 - - - - 6 Partly cloudy - 19.0 1012.4 28.4
04/06:00am SSW 8 12 - - - - 10 Cloudy Showers 18.9 1012.4 28.2
04/05:30am SSW 5 7 - - - - 8 Partly cloudy - 19.1 1012.0 28.0
04/05:12am S 6 9 - - - - 6 Partly cloudy - 19.0 1011.9 28.0
04/05:10am S 6 8 - - - - 7 Partly cloudy - 19.0 1011.9 27.8
04/05:00am SSW 6 8 - - - - 6 Partly cloudy - 19.0 1011.8 27.4
04/04:30am SW 7 8 - - - - 5 Partly cloudy - 19.2 1011.6 22.2
04/04:07am SW 1 5 - - - - 5 Partly cloudy - 19.3 1011.5 21.0
04/04:00am SW 2 5 - - - - 10 Partly cloudy - 19.4 1011.4 20.4
04/03:30am SSW 7 13 - - - - 10 Partly cloudy - 19.3 1011.1 20.2
04/03:00am S 4 6 - - - - 10 Cloudy Rain 19.3 1011.1 20.2
04/02:49am S 6 8 - - - - 10 Partly cloudy - 19.3 1011.1 20.2
04/02:39am S 9 11 - - - - 9 Partly cloudy - 19.3 1011.1 20.2
04/02:30am SSE 9 13 - - - - 7 Partly cloudy - 19.6 1011.3 19.8
04/02:00am SSW 7 8 - - - - 3 Partly cloudy - 19.7 1011.5 16.4
04/01:59am S 7 8 - - - - 3 Partly cloudy - 19.7 1011.5 15.8
04/01:56am S 7 9 - - - - 6 Partly cloudy - 19.7 1011.6 14.2
04/01:30am S 9 13 - - - - 8 Partly cloudy - 19.9 1011.6 12.8
04/01:19am SSW 7 10 - - - - 7 Partly cloudy - 19.9 1011.6 12.6
04/01:00am S 7 9 - - - - 4 Partly cloudy - 19.9 1011.8 12.2
04/12:49am S 5 6 - - - - 6 Partly cloudy - 19.9 1011.8 11.2
04/12:43am S 6 9 - - - - 8 Partly cloudy - 19.9 1011.8 10.6
04/12:30am SSW 7 9 - - - - 5 Partly cloudy - 20.0 1011.9 10.2
04/12:20am SSW 7 10 - - - - 6 Partly cloudy - 20.0 1012.1 9.2
04/12:00am SW 5 11 - - - - 10 Cloudy Rain 20.1 1012.0 8.4
 
Date/Time
EST
Wind Sea
Height
m
Swell Vis
km
Cloud Weather Temp
°C
Press
MSL
hPa
Rain since
9am
mm
Dir  Spd
kts
Gust
kts
Height
m
Period
s
Dir
03/11:51pm SSW 6 9 - - - - 10 Partly cloudy - 20.2 1012.1 8.4
03/11:33pm SSW 4 7 - - - - 6 Partly cloudy - 20.3 1012.2 8.0
03/11:30pm SSW 3 6 - - - - 10 Partly cloudy - 20.3 1012.3 7.4
03/11:00pm S 5 8 - - - - 10 Partly cloudy - 20.5 1012.3 6.4
03/10:39pm SW 5 7 - - - - 10 Partly cloudy - 20.8 1012.2 5.6
03/10:30pm SW 5 7 - - - - 7 Partly cloudy - 20.6 1012.3 5.6
03/10:22pm S 5 8 - - - - 6 Partly cloudy - 20.5 1012.3 5.4
03/10:00pm SSE 4 6 - - - - 10 Partly cloudy - 21.0 1012.3 4.4
03/09:30pm WSW 3 6 - - - - 10 Partly cloudy - 21.0 1012.5 3.8
03/09:00pm SW 3 4 - - - - 10 Cloudy Rain 21.2 1012.4 3.6
03/08:30pm SSW 5 7 - - - - 10 Partly cloudy - 21.1 1012.2 3.4
03/08:07pm SE 3 8 - - - - 10 Partly cloudy - 21.1 1012.1 3.4
03/08:00pm SE 1 4 - - - - 10 Cloudy - 21.2 1012.0 3.4
03/07:45pm S 6 10 - - - - 6 Partly cloudy - 21.0 1011.9 2.6
03/07:30pm S 5 7 - - - - 10 Partly cloudy - 21.4 1011.7 1.6
03/07:22pm S 5 6 - - - - 10 Partly cloudy - 21.5 1011.6 1.6
03/07:05pm S 6 7 - - - - 6 Cloudy - 21.6 1011.3 1.2
03/07:00pm SSW 5 8 - - - - 10 Cloudy - 21.7 1011.2 0.4
03/06:30pm S 5 8 - - - - 10 Partly cloudy - 22.5 1010.9 0.2
03/06:00pm SE 6 8 - - - - 10 Cloudy - 23.8 1010.7 0.2
03/05:30pm SE 7 10 - - - - 10 Partly cloudy - 23.9 1010.4 0.2
03/05:00pm SE 6 9 - - - - 10 Partly cloudy - 23.9 1010.2 0.2
03/04:30pm SE 9 12 - - - - 10 Partly cloudy - 24.4 1010.2 0.2
03/04:00pm SE 7 11 - - - - 10 Cloudy - 24.6 1010.4 0.2
03/03:30pm SSE 5 8 - - - - 10 Cloudy - 24.5 1010.5 0.2
03/03:00pm SSE 7 11 - - - - 10 Cloudy - 24.2 1010.8 0.2
03/02:30pm S 7 11 - - - - 10 Partly cloudy - 23.7 1011.1 0.2
03/02:00pm SSE 5 9 - - - - 10 Cloudy - 24.4 1011.3 0.2
03/01:30pm S 8 11 - - - - 10 Cloudy - 24.5 1011.6 0.2
03/01:00pm SW 5 8 - - - - 10 Cloudy - 23.9 1011.9 0.2
03/12:30pm SW 6 8 - - - - 10 Cloudy - 22.8 1012.2 0.2
03/12:00pm WSW 7 9 - - - - 10 Cloudy Rain 22.0 1012.6 0.2
03/11:30am SSW 5 7 - - - - 10 Cloudy - 21.9 1012.7 0.2
03/11:00am SSW 6 8 - - - - 10 Cloudy - 22.0 1012.9 0.0
03/10:30am SSW 7 11 - - - - 10 Partly cloudy - 22.1 1012.9 0.0
03/10:00am SSW 7 9 - - - - 10 Partly cloudy - 22.6 1013.0 0.0
03/09:30am SW 7 9 - - - - 10 Partly cloudy - 22.4 1012.8 0.0
03/09:00am SSW 2 5 - - - - 10 Cloudy - 22.3 1012.6 12.6
03/08:30am SSE 6 9 - - - - 10 Partly cloudy - 22.0 1012.4 12.6
03/08:00am SSE 6 7 - - - - 10 Partly cloudy - 21.8 1012.4 12.6
03/07:39am SE 7 9 - - - - 9 Partly cloudy - 21.5 1012.2 12.6
03/07:30am SE 9 15 - - - - 7 Partly cloudy - 21.3 1012.1 12.6
03/07:00am SSE 11 15 - - - - 2 Partly cloudy - 21.3 1011.9 7.6
03/06:52am SSE 11 14 - - - - 5 Partly cloudy - 21.4 1011.8 3.8
03/06:30am SSW 6 9 - - - - 10 Partly cloudy - 21.5 1011.5 2.2
03/06:00am S 8 11 - - - - 10 Cloudy Showers 21.5 1011.1 2.2
03/05:30am S 9 12 - - - - 10 Partly cloudy - 21.8 1011.0 2.0
03/05:00am SSW 8 11 - - - - 10 Partly cloudy - 21.9 1010.7 2.0
03/04:30am SW 5 7 - - - - 10 Partly cloudy - 22.2 1010.5 1.8
03/04:09am S 6 9 - - - - 10 Partly cloudy - 22.3 1010.3 1.6
03/04:00am S 7 10 - - - - 8 Partly cloudy - 22.2 1010.3 1.6
03/03:51am SSW 7 10 - - - - 6 Partly cloudy - 22.5 1010.2 1.4
03/03:30am SSW 7 10 - - - - 10 Partly cloudy - 23.3 1010.0 0.2
03/03:00am SSE 11 17 - - - - 10 Cloudy - 24.6 1009.9 0.2
03/02:30am SSE 9 15 - - - - 10 Partly cloudy - 24.6 1009.9 0.2
03/02:00am SSE 11 16 - - - - 10 Partly cloudy - 24.8 1010.1 0.2
03/01:30am SSE 11 15 - - - - 10 Partly cloudy - 24.8 1010.2 0.2
03/01:00am SSE 10 16 - - - - 10 Partly cloudy - 24.7 1010.4 0.2
03/12:30am S 7 12 - - - - 10 Partly cloudy - 23.9 1010.6 0.2
03/12:00am SSE 8 14 - - - - 10 Cloudy - 23.8 1010.7 0.2
 
Date/Time
EST
Wind Sea
Height
m
Swell Vis
km
Cloud Weather Temp
°C
Press
MSL
hPa
Rain since
9am
mm
Dir  Spd
kts
Gust
kts
Height
m
Period
s
Dir
02/11:30pm SSE 11 14 - - - - 10 Partly cloudy - 24.7 1010.9 0.2
02/11:00pm SSE 12 17 - - - - 10 Partly cloudy - 25.1 1011.0 0.2
02/10:30pm SSE 9 15 - - - - 10 Partly cloudy - 25.2 1011.1 0.2
02/10:00pm SSE 10 15 - - - - 10 Partly cloudy - 25.2 1011.1 0.2
02/09:30pm SSE 15 21 - - - - 10 Partly cloudy - 25.2 1010.6 0.2
02/09:00pm SE 14 20 - - - - 10 Cloudy - 25.3 1010.7 0.2
02/08:30pm SSE 14 23 - - - - 10 Cloudy - 25.4 1010.5 0.2
02/08:00pm SSE 12 21 - - - - 10 Cloudy - 25.5 1010.2 0.2
02/07:30pm SSE 13 18 - - - - 10 Cloudy - 25.5 1009.7 0.2
02/07:00pm SSE 13 18 - - - - 10 Partly cloudy - 25.5 1009.4 0.2
02/06:30pm SSE 12 19 - - - - 10 Partly cloudy - 25.5 1009.1 0.2
02/06:00pm SSE 13 17 - - - - 10 Cloudy - 25.9 1008.7 0.2
02/05:30pm SSE 14 20 - - - - 10 Partly cloudy - 26.2 1008.3 0.2
02/05:00pm SSE 12 17 - - - - 10 Partly cloudy - 26.5 1008.2 0.2
02/04:30pm SSE 12 22 - - - - 10 Partly cloudy - 26.9 1007.9 0.2
02/04:00pm SSE 12 18 - - - - 10 Partly cloudy - 26.6 1007.6 0.2
02/03:30pm SSE 12 18 - - - - 10 Partly cloudy - 26.7 1007.6 0.2
02/03:00pm ESE 8 13 - - - - 10 Mostly cloudy - 27.9 1007.4 0.2
02/02:30pm NNE 10 14 - - - - 10 Partly cloudy - 29.4 1006.9 0.2
02/02:00pm NNE 12 14 - - - - 10 - - 28.9 1007.0 0.2
02/01:30pm NNE 11 14 - - - - 10 - - 29.1 1007.3 0.2
02/01:00pm NNE 11 15 - - - - 10 - - 29.4 1007.5 0.2
02/12:30pm NNE 12 15 - - - - 10 - - 29.1 1007.7 0.2
02/12:00pm N 11 13 - - - - 10 - - 29.6 1008.0 0.2
02/11:30am N 11 14 - - - - 10 - - 29.1 1008.0 0.2
02/11:00am N 12 14 - - - - 10 - - 28.8 1008.3 0.2
02/10:30am N 11 14 - - - - 10 - - 28.7 1008.7 0.2
02/10:00am N 11 13 - - - - 10 - - 28.8 1008.9 0.2
02/09:30am N 11 13 - - - - 10 - - 28.6 1008.9 0.2
02/09:00am NW 8 12 - - - - 10 - - 28.4 1009.0 0.6
02/08:30am NW 8 11 - - - - 10 - - 27.9 1008.7 0.6
02/08:00am NW 6 9 - - - - 10 - - 27.0 1008.6 0.6
02/07:30am NW 6 8 - - - - 10 - - 25.9 1008.5 0.6
02/07:00am NW 7 9 - - - - 10 - - 24.6 1008.4 0.6
02/06:30am NNW 6 8 - - - - 10 - - 23.1 1008.4 0.6
02/06:00am NW 5 7 - - - - 10 - - 22.1 1008.2 0.6
02/05:30am NW 5 6 - - - - 10 - - 21.8 1008.2 0.6
02/05:00am NNW 5 7 - - - - 10 - - 22.3 1007.7 0.6
02/04:30am NW 4 5 - - - - 10 - - 21.9 1007.5 0.6
02/04:00am NW 4 5 - - - - 10 - - 21.9 1007.4 0.6
02/03:30am CALM 0 2 - - - - 10 - - 21.6 1007.8 0.6
02/03:00am CALM 0 0 - - - - 10 - - 21.5 1008.0 0.6

Other formats

Comma delimited format used in spreadsheet applications
http://www.bom.gov.au/fwo/IDQ60701/IDQ60701.94592.axf

JavaScript Object Notation format (JSON) in row-major order
http://www.bom.gov.au/fwo/IDQ60701/IDQ60701.94592.json

Data quality

Most of these data are generated automatically and are frequently updated. Quality checks on data are not normally performed. It is possible for incorrect values to appear. Refer to information at About Latest Weather Observations and please check the disclaimer before using these data.